createdAt,value
2022-11-09T00:00:18.222Z,9.2
2022-11-09T00:02:17.984Z,9.2
2022-11-09T00:08:18.474Z,9.1
2022-11-09T00:10:19.578Z,9
2022-11-09T00:12:17.141Z,8.9
2022-11-09T00:14:19.268Z,9
2022-11-09T00:18:18.485Z,8.7
2022-11-09T00:20:16.234Z,8.8
2022-11-09T00:22:19.856Z,8.9
2022-11-09T00:24:19.480Z,9
2022-11-09T00:26:16.792Z,9
2022-11-09T00:30:16.201Z,9
2022-11-09T00:32:24.052Z,9.1
2022-11-09T00:34:19.596Z,9.2
2022-11-09T00:36:17.158Z,9.1
2022-11-09T00:38:14.844Z,9
2022-11-09T00:40:19.505Z,8.8
2022-11-09T00:42:15.257Z,8.7
2022-11-09T00:44:15.215Z,8.8
2022-11-09T00:46:20.571Z,8.7
2022-11-09T00:48:18.934Z,8.7
2022-11-09T00:50:16.655Z,8.7
2022-11-09T00:52:19.934Z,8.8
2022-11-09T00:54:18.888Z,8.9
2022-11-09T00:56:18.471Z,8.7
2022-11-09T00:58:20.422Z,8.6
2022-11-09T01:00:17.286Z,8.4
2022-11-09T01:02:17.946Z,8.3
2022-11-09T01:06:14.868Z,8.1
2022-11-09T01:08:16.199Z,8.2
2022-11-09T01:12:18.459Z,8.1
2022-11-09T01:14:18.433Z,8.1
2022-11-09T01:18:17.526Z,7.9
2022-11-09T01:20:18.947Z,8
2022-11-09T01:24:18.327Z,8
2022-11-09T01:26:19.445Z,8.1
2022-11-09T01:28:19.033Z,7.8
2022-11-09T01:30:16.225Z,7.8
2022-11-09T01:32:18.869Z,7.8
2022-11-09T01:34:19.140Z,7.9
2022-11-09T01:36:15.906Z,7.8
2022-11-09T01:38:18.486Z,8
2022-11-09T01:40:19.704Z,7.9
2022-11-09T01:42:21.111Z,7.8
2022-11-09T01:44:17.926Z,7.8
2022-11-09T01:46:18.827Z,7.9
2022-11-09T01:48:16.562Z,7.9
2022-11-09T01:50:16.641Z,8
2022-11-09T01:52:19.700Z,7.9
2022-11-09T01:54:16.803Z,7.8
2022-11-09T01:56:17.410Z,7.8
2022-11-09T02:00:17.049Z,7.9
2022-11-09T02:02:18.905Z,7.9
2022-11-09T02:06:14.881Z,7.6
2022-11-09T02:08:17.959Z,7.6
2022-11-09T02:12:15.272Z,7.5
2022-11-09T02:14:15.302Z,7.6
2022-11-09T02:16:19.839Z,7.5
2022-11-09T02:18:17.521Z,7.4
2022-11-09T02:20:19.016Z,7.3
2022-11-09T02:22:18.552Z,7.2
2022-11-09T02:24:16.581Z,7.3
2022-11-09T02:26:18.961Z,7.3
2022-11-09T02:30:16.287Z,7.3
2022-11-09T02:32:16.193Z,7.3
2022-11-09T02:34:19.637Z,7.1
2022-11-09T02:36:16.772Z,7
2022-11-09T02:38:15.898Z,7
2022-11-09T02:42:21.112Z,6.7
2022-11-09T02:44:17.553Z,6.9
2022-11-09T02:46:19.689Z,7
2022-11-09T02:48:17.481Z,7.1
2022-11-09T02:50:18.771Z,7.1
2022-11-09T02:52:18.469Z,7
2022-11-09T02:54:15.269Z,7
2022-11-09T02:56:18.894Z,7
2022-11-09T03:00:18.714Z,6.8
2022-11-09T03:02:15.272Z,7
2022-11-09T03:04:19.687Z,6.9
2022-11-09T03:06:16.750Z,6.7
2022-11-09T03:08:16.606Z,6.7
2022-11-09T03:10:18.467Z,6.7
2022-11-09T03:12:17.122Z,7
2022-11-09T03:14:16.620Z,7.3
2022-11-09T03:16:19.884Z,7.3
2022-11-09T03:18:19.066Z,7.3
2022-11-09T03:20:19.675Z,7.2
2022-11-09T03:22:19.632Z,7
2022-11-09T03:24:17.211Z,6.8
2022-11-09T03:26:19.381Z,6.8
2022-11-09T03:30:18.347Z,6.7
2022-11-09T03:32:19.304Z,7
2022-11-09T03:34:19.516Z,7
2022-11-09T03:36:16.192Z,7.1
2022-11-09T03:38:16.703Z,7.1
2022-11-09T03:42:18.572Z,7.2
2022-11-09T03:44:14.940Z,7.3
2022-11-09T03:48:20.212Z,7.2
2022-11-09T03:50:18.389Z,7.1
2022-11-09T03:54:19.570Z,7
2022-11-09T03:56:17.160Z,6.9
2022-11-09T03:58:19.937Z,6.9
2022-11-09T04:00:18.162Z,7
2022-11-09T04:02:17.511Z,6.9
2022-11-09T04:04:19.646Z,7
2022-11-09T04:06:19.380Z,6.9
2022-11-09T04:08:17.049Z,6.9
2022-11-09T04:10:19.475Z,6.7
2022-11-09T04:12:18.539Z,6.6
2022-11-09T04:14:18.980Z,6.6
2022-11-09T04:16:19.640Z,6.3
2022-11-09T04:18:18.069Z,6.1
2022-11-09T04:20:14.915Z,6
2022-11-09T04:22:19.838Z,6.1
2022-11-09T04:24:16.808Z,6.2
2022-11-09T04:26:18.888Z,6.3
2022-11-09T04:30:19.782Z,6.5
2022-11-09T04:32:18.065Z,6.8
2022-11-09T04:34:19.576Z,6.9
2022-11-09T04:36:16.660Z,7.1
2022-11-09T04:38:18.976Z,7.2
2022-11-09T04:42:18.516Z,7.4
2022-11-09T04:44:14.919Z,7.4
2022-11-09T04:46:19.860Z,7.5
2022-11-09T04:48:19.022Z,7.4
2022-11-09T04:50:16.723Z,7.3
2022-11-09T04:54:17.987Z,7
2022-11-09T04:56:15.288Z,6.9
2022-11-09T04:58:24.732Z,6.9
2022-11-09T05:00:16.328Z,7
2022-11-09T05:02:17.199Z,7.3
2022-11-09T05:04:19.495Z,7.4
2022-11-09T05:06:18.097Z,7.4
2022-11-09T05:08:18.409Z,7.4
2022-11-09T05:10:19.496Z,7.4
2022-11-09T05:12:16.363Z,7.5
2022-11-09T05:14:16.967Z,7.5
2022-11-09T05:16:19.385Z,7.6
2022-11-09T05:18:18.548Z,7.5
2022-11-09T05:20:18.508Z,7.3
2022-11-09T05:22:19.774Z,7.5
2022-11-09T05:24:18.103Z,7.4
2022-11-09T05:26:16.345Z,7.4
2022-11-09T05:28:19.673Z,7.3
2022-11-09T05:30:19.032Z,7.4
2022-11-09T05:32:18.007Z,7.4
2022-11-09T05:34:19.215Z,7.4
2022-11-09T05:36:17.317Z,7.4
2022-11-09T05:38:18.403Z,7.5
2022-11-09T05:42:19.023Z,7.4
2022-11-09T05:44:18.435Z,7.4
2022-11-09T05:46:19.812Z,7.4
2022-11-09T05:48:17.374Z,7.3
2022-11-09T05:50:17.610Z,7.2
2022-11-09T05:52:19.547Z,7.2
2022-11-09T05:54:18.998Z,7.2
2022-11-09T05:56:19.792Z,7.1
2022-11-09T05:58:19.024Z,7.2
2022-11-09T06:00:15.314Z,7
2022-11-09T06:02:18.217Z,7
2022-11-09T06:04:19.944Z,6.9
2022-11-09T06:06:16.936Z,6.9
2022-11-09T06:08:18.378Z,6.9
2022-11-09T06:10:19.677Z,6.8
2022-11-09T06:12:15.310Z,6.7
2022-11-09T06:14:19.021Z,6.7
2022-11-09T06:16:19.695Z,6.9
2022-11-09T06:18:15.006Z,7
2022-11-09T06:20:18.551Z,7
2022-11-09T06:22:19.818Z,7
2022-11-09T06:24:16.713Z,7.1
2022-11-09T06:26:18.090Z,7
2022-11-09T06:28:19.803Z,6.9
2022-11-09T06:30:15.761Z,7
2022-11-09T06:32:16.783Z,7.1
2022-11-09T06:34:19.707Z,7.3
2022-11-09T06:36:16.699Z,7.4
2022-11-09T06:38:17.520Z,7.5
2022-11-09T06:40:19.826Z,7.6
2022-11-09T06:42:17.384Z,7.8
2022-11-09T06:44:19.736Z,7.8
2022-11-09T06:46:18.785Z,7.8
2022-11-09T06:48:18.073Z,7.9
2022-11-09T06:50:19.890Z,8
2022-11-09T06:52:19.261Z,8
2022-11-09T06:54:16.344Z,8
2022-11-09T06:56:18.312Z,8
2022-11-09T07:00:19.027Z,8.2
2022-11-09T07:02:20.046Z,8.4
2022-11-09T07:06:16.496Z,8.5
2022-11-09T07:08:13.311Z,8.6
2022-11-09T07:16:59.746Z,8.9
2022-11-09T07:25:49.316Z,9
2022-11-09T07:30:24.569Z,9
2022-11-09T07:34:09.161Z,9.2
2022-11-09T07:36:10.837Z,9.5
2022-11-09T07:40:55.800Z,9.6
2022-11-09T07:45:04.048Z,9.5
2022-11-09T07:47:48.026Z,9.2
2022-11-09T07:52:47.875Z,9.1
2022-11-09T07:54:52.578Z,9.1
2022-11-09T07:57:54.800Z,9.2
2022-11-09T08:01:39.460Z,9.1
2022-11-09T08:08:55.099Z,9.5
2022-11-09T08:12:48.768Z,9.8
2022-11-09T08:15:19.195Z,9.6
2022-11-09T08:18:40.650Z,9.8
2022-11-09T08:22:02.870Z,9.8
2022-11-09T08:24:05.355Z,9.7
2022-11-09T08:28:18.414Z,9.9
2022-11-09T08:32:00.025Z,10.1
2022-11-09T08:34:00.217Z,10
2022-11-09T08:38:48.728Z,11
2022-11-09T08:40:48.124Z,11
2022-11-09T08:44:29.063Z,11.3
2022-11-09T08:51:47.905Z,11.4
2022-11-09T08:54:26.341Z,11.7
2022-11-09T08:59:44.613Z,12
2022-11-09T09:01:54.502Z,12
2022-11-09T09:07:40.113Z,12.1
2022-11-09T09:13:47.803Z,12.3
2022-11-09T09:16:23.090Z,12.4
2022-11-09T09:18:21.204Z,12.5
2022-11-09T09:22:49.264Z,12.4
2022-11-09T09:28:36.535Z,12.2
2022-11-09T09:30:34.211Z,12.2
2022-11-09T09:39:26.694Z,12.1
2022-11-09T09:42:49.376Z,12.2
2022-11-09T09:44:26.559Z,12.2
2022-11-09T09:46:59.983Z,12.2
2022-11-09T09:50:39.524Z,12.2
2022-11-09T09:52:35.389Z,12.2
2022-11-09T09:59:27.784Z,12.2
2022-11-09T10:01:26.728Z,12.2
2022-11-09T10:05:25.709Z,12.2
2022-11-09T10:12:31.792Z,12.2
2022-11-09T10:15:02.937Z,12.2
2022-11-09T10:19:31.711Z,12.3
2022-11-09T10:24:13.057Z,12.5
2022-11-09T10:26:57.920Z,12.4
2022-11-09T10:37:49.780Z,12.4
2022-11-09T10:40:35.682Z,12.5
2022-11-09T10:44:57.266Z,12.5
2022-11-09T10:53:10.919Z,12.5
2022-11-09T11:11:31.943Z,12.7
2022-11-09T11:21:35.980Z,12.7
2022-11-09T11:25:05.006Z,12.7
2022-11-09T11:37:03.301Z,12.7
2022-11-09T11:39:25.358Z,12.7
2022-11-09T11:44:26.117Z,12.8
2022-11-09T11:46:59.890Z,12.8
2022-11-09T11:54:37.264Z,12.8
2022-11-09T11:56:25.985Z,12.8
2022-11-09T12:04:32.367Z,12.8
2022-11-09T12:07:47.713Z,12.9
2022-11-09T12:12:11.813Z,12.8
2022-11-09T12:21:09.441Z,12.9
2022-11-09T12:24:31.812Z,12.9
2022-11-09T12:26:32.005Z,12.9
2022-11-09T12:29:59.202Z,12.9
2022-11-09T12:34:43.136Z,12.9
2022-11-09T12:40:17.164Z,12.9
2022-11-09T12:42:56.615Z,12.9
2022-11-09T12:46:31.496Z,12.9
2022-11-09T12:48:30.549Z,12.9
2022-11-09T12:50:40.178Z,12.9
2022-11-09T12:52:44.711Z,12.9
2022-11-09T12:59:55.739Z,12.9
2022-11-09T13:04:43.127Z,12.9
2022-11-09T13:08:14.492Z,12.9
2022-11-09T13:10:33.011Z,12.9
2022-11-09T13:21:56.580Z,12.9
2022-11-09T13:29:56.247Z,12.9
2022-11-09T13:31:52.119Z,12.9
2022-11-09T13:34:50.113Z,12.9
2022-11-09T13:39:12.810Z,12.9
2022-11-09T13:41:29.582Z,12.9
2022-11-09T13:43:38.455Z,12.9
2022-11-09T13:47:17.460Z,12.9
2022-11-09T13:51:09.096Z,12.9
2022-11-09T13:54:46.517Z,12.9
2022-11-09T14:00:15.352Z,13
2022-11-09T14:03:11.547Z,13
2022-11-09T14:09:20.731Z,12.9
2022-11-09T14:15:16.832Z,12.9
2022-11-09T14:27:43.750Z,12.9
2022-11-09T14:27:55.428Z,12.8
2022-11-09T14:37:14.342Z,12.8
2022-11-09T14:38:50.000Z,12.8
2022-11-09T14:59:31.576Z,12.6
2022-11-09T15:01:34.520Z,12.6
2022-11-09T15:03:30.832Z,12.5
2022-11-09T15:09:44.092Z,12.4
2022-11-09T15:19:50.847Z,12.3
2022-11-09T15:21:54.537Z,12.3
2022-11-09T15:23:46.257Z,12.2
2022-11-09T15:25:43.797Z,12.2
2022-11-09T15:29:43.394Z,12.2
2022-11-09T15:33:08.135Z,12.3
2022-11-09T15:46:08.026Z,12.2
2022-11-09T15:48:11.986Z,12
2022-11-09T15:55:10.991Z,12
2022-11-09T15:57:45.609Z,11.9
2022-11-09T15:59:53.036Z,11.9
2022-11-09T16:03:57.688Z,11.9
2022-11-09T16:05:59.398Z,11.9
2022-11-09T16:10:35.083Z,11.9
2022-11-09T16:14:39.540Z,11.9
2022-11-09T16:21:33.456Z,11.8
2022-11-09T16:32:52.202Z,11.7
2022-11-09T16:35:08.672Z,11.6
2022-11-09T16:36:57.827Z,11.7
2022-11-09T16:41:36.524Z,11.6
2022-11-09T16:43:28.165Z,11.6
2022-11-09T16:46:30.618Z,11.6
2022-11-09T16:54:53.912Z,11.5
2022-11-09T16:56:47.763Z,11.4
2022-11-09T16:58:47.199Z,11.4
2022-11-09T17:06:04.984Z,11.3
2022-11-09T17:09:51.183Z,11.3
2022-11-09T17:11:51.414Z,11.2
2022-11-09T17:13:57.882Z,11.2
2022-11-09T17:16:33.324Z,11.2
2022-11-09T17:18:27.422Z,11.2
2022-11-09T17:22:31.820Z,11.1
2022-11-09T17:24:50.815Z,11.1
2022-11-09T17:30:55.467Z,11.1
2022-11-09T17:32:51.681Z,11
2022-11-09T17:37:03.458Z,11
2022-11-09T17:39:26.162Z,11
2022-11-09T17:41:25.392Z,11
2022-11-09T17:43:22.523Z,10.9
2022-11-09T17:45:22.503Z,11
2022-11-09T17:47:22.492Z,11
2022-11-09T17:49:23.764Z,11
2022-11-09T17:53:22.390Z,10.9
2022-11-09T17:55:22.485Z,10.9
2022-11-09T17:57:22.420Z,11
2022-11-09T17:59:22.766Z,10.9
2022-11-09T18:01:22.469Z,10.9
2022-11-09T18:03:22.525Z,10.9
2022-11-09T18:05:22.389Z,10.9
2022-11-09T18:07:22.564Z,10.9
2022-11-09T18:09:40.648Z,11
2022-11-09T18:11:22.485Z,10.9
2022-11-09T18:13:22.392Z,10.9
2022-11-09T18:15:22.423Z,10.9
2022-11-09T18:17:22.462Z,10.9
2022-11-09T18:19:22.875Z,10.9
2022-11-09T18:23:22.482Z,10.9
2022-11-09T18:25:22.406Z,10.9
2022-11-09T18:27:26.054Z,10.8
2022-11-09T18:29:22.870Z,10.9
2022-11-09T18:31:22.431Z,10.9
2022-11-09T18:33:23.237Z,10.9
2022-11-09T18:37:22.998Z,10.9
2022-11-09T18:39:22.379Z,10.8
2022-11-09T18:41:22.997Z,10.9
2022-11-09T18:43:22.487Z,10.9
2022-11-09T18:45:22.717Z,10.9
2022-11-09T18:47:22.423Z,10.8
2022-11-09T18:49:22.489Z,10.8
2022-11-09T18:51:23.102Z,10.9
2022-11-09T18:53:22.724Z,10.9
2022-11-09T18:55:22.812Z,10.8
2022-11-09T18:57:24.264Z,10.8
2022-11-09T18:59:23.129Z,10.8
2022-11-09T19:01:22.515Z,10.8
2022-11-09T19:05:23.751Z,10.8
2022-11-09T19:07:22.500Z,10.8
2022-11-09T19:09:22.386Z,10.7
2022-11-09T19:13:22.966Z,10.7
2022-11-09T19:15:22.478Z,10.7
2022-11-09T19:17:22.521Z,10.7
2022-11-09T19:19:29.357Z,10.7
2022-11-09T19:21:22.395Z,10.7
2022-11-09T19:23:23.722Z,10.7
2022-11-09T19:25:22.924Z,10.7
2022-11-09T19:27:22.846Z,10.7
2022-11-09T19:29:22.878Z,10.6
2022-11-09T19:31:22.409Z,10.6
2022-11-09T19:33:22.373Z,10.7
2022-11-09T19:37:22.567Z,10.6
2022-11-09T19:39:22.470Z,10.6
2022-11-09T19:41:22.482Z,10.6
2022-11-09T19:43:25.840Z,10.5
2022-11-09T19:45:23.153Z,10.6
2022-11-09T19:47:22.627Z,10.5
2022-11-09T19:49:22.546Z,10.5
2022-11-09T19:51:22.547Z,10.5
2022-11-09T19:53:25.960Z,10.5
2022-11-09T19:55:22.399Z,10.5
2022-11-09T19:57:22.514Z,10.5
2022-11-09T19:59:23.729Z,10.5
2022-11-09T20:01:22.687Z,10.5
2022-11-09T20:03:22.477Z,10.4
2022-11-09T20:05:25.829Z,10.4
2022-11-09T20:09:22.827Z,10.4
2022-11-09T20:11:22.424Z,10.4
2022-11-09T20:13:22.433Z,10.4
2022-11-09T20:15:22.446Z,10.5
2022-11-09T20:17:22.484Z,10.4
2022-11-09T20:19:22.433Z,10.4
2022-11-09T20:21:22.561Z,10.4
2022-11-09T20:23:25.288Z,10.4
2022-11-09T20:25:22.443Z,10.4
2022-11-09T20:27:22.566Z,10.4
2022-11-09T20:29:22.435Z,10.4
2022-11-09T20:31:22.428Z,10.4
2022-11-09T20:33:23.070Z,10.4
2022-11-09T20:35:22.422Z,10.4
2022-11-09T20:37:22.502Z,10.4
2022-11-09T20:39:22.463Z,10.4
2022-11-09T20:41:25.497Z,10.4
2022-11-09T20:43:23.822Z,10.3
2022-11-09T20:45:22.440Z,10.3
2022-11-09T20:47:42.296Z,10.4
2022-11-09T20:51:22.542Z,10.3
2022-11-09T20:53:22.586Z,10.3
2022-11-09T20:55:22.530Z,10.4
2022-11-09T20:57:22.760Z,10.4
2022-11-09T20:59:22.424Z,10.3
2022-11-09T21:01:22.483Z,10.3
2022-11-09T21:03:22.850Z,10.3
2022-11-09T21:05:22.583Z,10.3
2022-11-09T21:07:22.576Z,10.3
2022-11-09T21:09:22.401Z,10.3
2022-11-09T21:11:22.781Z,10.3
2022-11-09T21:13:22.449Z,10.3
2022-11-09T21:19:22.402Z,10.3
2022-11-09T21:21:22.458Z,10.2
2022-11-09T21:23:22.430Z,10.2
2022-11-09T21:25:23.178Z,10.2
2022-11-09T21:27:22.483Z,10.2
2022-11-09T21:31:22.522Z,10.2
2022-11-09T21:33:22.536Z,10.2
2022-11-09T21:35:22.492Z,10.2
2022-11-09T21:37:23.212Z,10.2
2022-11-09T21:39:22.807Z,10.2
2022-11-09T21:41:22.905Z,10.2
2022-11-09T21:43:28.445Z,10.2
2022-11-09T21:45:22.550Z,10.2
2022-11-09T21:47:22.517Z,10.2
2022-11-09T21:49:22.452Z,10.2
2022-11-09T21:51:22.526Z,10.2
2022-11-09T21:53:22.858Z,10.2
2022-11-09T21:55:22.425Z,10.2
2022-11-09T21:57:22.561Z,10.2
2022-11-09T21:59:22.471Z,10.2
2022-11-09T22:01:23.200Z,10.2
2022-11-09T22:03:28.357Z,10.2
2022-11-09T22:05:23.315Z,10.2
2022-11-09T22:07:25.394Z,10.2
2022-11-09T22:09:32.552Z,10.2
2022-11-09T22:11:22.513Z,10.2
2022-11-09T22:13:26.075Z,10.2
2022-11-09T22:15:23.739Z,10.2
2022-11-09T22:17:22.472Z,10.2
2022-11-09T22:19:23.815Z,10.2
2022-11-09T22:21:23.726Z,10.2
2022-11-09T22:23:25.558Z,10.2
2022-11-09T22:25:24.997Z,10.2
2022-11-09T22:27:23.741Z,10.2
2022-11-09T22:29:22.423Z,10.2
2022-11-09T22:31:25.278Z,10.2
2022-11-09T22:33:26.011Z,10.2
2022-11-09T22:35:23.799Z,10.2
2022-11-09T22:37:25.356Z,10.2
2022-11-09T22:39:22.433Z,10.2
2022-11-09T22:41:22.481Z,10.2
2022-11-09T22:43:25.343Z,10.2
2022-11-09T22:45:25.710Z,10.2
2022-11-09T22:47:22.915Z,10.2
2022-11-09T22:49:22.444Z,10.2
2022-11-09T22:51:22.453Z,10.2
2022-11-09T22:53:22.605Z,10.2
2022-11-09T22:55:23.726Z,10.2
2022-11-09T22:57:22.463Z,10.2
2022-11-09T22:59:22.562Z,10.2
2022-11-09T23:01:25.359Z,10.2
2022-11-09T23:03:25.295Z,10.2
2022-11-09T23:05:23.798Z,10.2
2022-11-09T23:07:22.435Z,10.1
2022-11-09T23:09:22.439Z,10.2
2022-11-09T23:11:22.440Z,10.2
2022-11-09T23:13:25.023Z,10.2
2022-11-09T23:15:25.481Z,10.1
2022-11-09T23:17:22.506Z,10.1
2022-11-09T23:21:25.036Z,10.2
2022-11-09T23:23:23.201Z,10.2
2022-11-09T23:25:25.742Z,10.2
2022-11-09T23:27:23.833Z,10.1
2022-11-09T23:29:23.200Z,10.1
2022-11-09T23:31:22.481Z,10.1
2022-11-09T23:35:25.268Z,10.1
2022-11-09T23:37:22.564Z,10.2
2022-11-09T23:39:22.792Z,10.1
2022-11-09T23:41:22.444Z,10.1
2022-11-09T23:43:24.085Z,10.1
2022-11-09T23:45:25.048Z,10.1
2022-11-09T23:47:25.867Z,10.1
2022-11-09T23:49:25.587Z,10.1
2022-11-09T23:51:25.266Z,10.1
2022-11-09T23:53:25.278Z,10.1
2022-11-09T23:55:22.469Z,10.1
2022-11-09T23:57:25.268Z,10.1
2022-11-09T23:59:22.804Z,10.1
